createdAt,value
2023-02-23T00:02:14.212Z,7.90
2023-02-23T00:05:15.453Z,7.90
2023-02-23T00:08:16.345Z,7.90
2023-02-23T00:11:19.341Z,7.90
2023-02-23T00:14:24.800Z,7.90
2023-02-23T00:17:25.842Z,7.90
2023-02-23T00:20:28.102Z,7.90
2023-02-23T00:23:28.816Z,7.90
2023-02-23T00:26:35.273Z,7.80
2023-02-23T00:29:40.162Z,7.90
2023-02-23T00:32:42.026Z,7.90
2023-02-23T00:35:43.005Z,7.80
2023-02-23T00:38:46.119Z,7.80
2023-02-23T00:41:48.814Z,7.80
2023-02-23T00:44:50.127Z,7.80
2023-02-23T00:47:50.947Z,7.80
2023-02-23T00:51:03.818Z,7.80
2023-02-23T00:54:05.690Z,7.80
2023-02-23T00:57:08.057Z,7.80
2023-02-23T01:00:20.332Z,7.80
2023-02-23T01:03:22.398Z,7.80
2023-02-23T01:06:23.593Z,7.80
2023-02-23T01:09:28.527Z,7.80
2023-02-23T01:12:29.380Z,7.80
2023-02-23T01:15:30.278Z,7.80
2023-02-23T01:18:35.433Z,7.80
2023-02-23T01:21:42.245Z,7.60
2023-02-23T01:24:43.357Z,7.50
2023-02-23T01:27:45.581Z,7.50
2023-02-23T01:30:46.874Z,7.40
2023-02-23T01:33:48.158Z,7.40
2023-02-23T01:36:49.899Z,7.40
2023-02-23T01:39:50.831Z,7.40
2023-02-23T01:42:51.621Z,7.30
2023-02-23T01:45:58.221Z,7.30
2023-02-23T01:49:00.103Z,7.30
2023-02-23T01:52:10.939Z,7.30
2023-02-23T01:55:15.587Z,7.30
2023-02-23T01:58:20.166Z,7.30
2023-02-23T02:01:22.429Z,7.30
2023-02-23T02:04:25.469Z,7.20
2023-02-23T02:07:35.404Z,7.30
2023-02-23T02:10:41.083Z,7.20
2023-02-23T02:13:42.334Z,7.20
2023-02-23T02:17:06.987Z,7.10
2023-02-23T02:20:33.291Z,7.10
2023-02-23T02:24:29.810Z,7.00
2023-02-23T02:28:13.553Z,7.00
2023-02-23T02:31:45.080Z,6.90
2023-02-23T02:34:56.785Z,6.90
2023-02-23T02:38:04.038Z,7.00
2023-02-23T02:41:35.708Z,7.00
2023-02-23T02:45:02.852Z,7.10
2023-02-23T02:48:25.890Z,7.10
2023-02-23T02:51:41.013Z,7.10
2023-02-23T02:54:49.741Z,7.00
2023-02-23T02:57:56.824Z,7.00
2023-02-23T03:01:26.874Z,7.00
2023-02-23T03:04:46.376Z,7.00
2023-02-23T03:08:35.895Z,7.00
2023-02-23T03:12:11.733Z,7.00
2023-02-23T03:15:51.290Z,6.90
2023-02-23T03:19:38.019Z,6.90
2023-02-23T03:23:33.311Z,6.90
2023-02-23T03:27:02.230Z,7.00
2023-02-23T03:30:37.513Z,7.00
2023-02-23T03:34:19.031Z,7.00
2023-02-23T03:37:50.424Z,7.10
2023-02-23T03:41:14.121Z,7.10
2023-02-23T03:44:52.435Z,7.10
2023-02-23T03:48:14.899Z,7.10
2023-02-23T03:51:38.468Z,7.10
2023-02-23T03:55:37.431Z,7.10
2023-02-23T03:59:05.891Z,7.10
2023-02-23T04:02:30.460Z,7.00
2023-02-23T04:05:54.102Z,7.00
2023-02-23T04:09:20.193Z,6.80
2023-02-23T04:13:09.618Z,6.80
2023-02-23T04:16:12.196Z,6.80
2023-02-23T04:19:13.215Z,6.90
2023-02-23T04:22:13.988Z,6.90
2023-02-23T04:25:18.093Z,6.90
2023-02-23T04:28:20.594Z,7.00
2023-02-23T04:31:25.410Z,7.00
2023-02-23T04:34:26.754Z,6.90
2023-02-23T04:37:27.601Z,6.90
2023-02-23T04:40:29.399Z,6.90
2023-02-23T04:43:30.260Z,6.90
2023-02-23T04:46:31.138Z,6.90
2023-02-23T04:49:31.886Z,7.00
2023-02-23T04:52:33.138Z,6.90
2023-02-23T04:55:34.436Z,6.90
2023-02-23T04:58:35.196Z,6.90
2023-02-23T05:01:37.388Z,6.90
2023-02-23T05:04:38.428Z,6.90
2023-02-23T05:07:39.653Z,6.90
2023-02-23T05:10:40.554Z,6.90
2023-02-23T05:13:41.652Z,6.90
2023-02-23T05:16:42.641Z,6.90
2023-02-23T05:19:43.265Z,6.90
2023-02-23T05:22:44.052Z,6.90
2023-02-23T05:25:44.873Z,6.80
2023-02-23T05:28:45.892Z,6.90
2023-02-23T05:31:48.753Z,6.90
2023-02-23T05:34:49.928Z,6.80
2023-02-23T05:37:51.271Z,6.80
2023-02-23T05:40:52.337Z,6.80
2023-02-23T05:43:55.874Z,6.80
2023-02-23T05:46:57.069Z,6.70
2023-02-23T05:49:57.801Z,6.70
2023-02-23T05:52:58.503Z,6.70
2023-02-23T05:55:59.536Z,6.70
2023-02-23T05:59:02.556Z,6.70
2023-02-23T06:02:06.216Z,6.70
2023-02-23T06:05:08.679Z,6.70
2023-02-23T06:08:09.917Z,6.80
2023-02-23T06:11:11.042Z,6.80
2023-02-23T06:14:12.008Z,6.80
2023-02-23T06:17:13.298Z,6.80
2023-02-23T06:20:14.950Z,6.80
2023-02-23T06:23:15.884Z,6.80
2023-02-23T06:26:16.604Z,6.80
2023-02-23T06:29:17.325Z,6.80
2023-02-23T06:32:18.151Z,6.80
2023-02-23T06:35:22.288Z,6.80
2023-02-23T06:38:24.061Z,6.80
2023-02-23T06:41:26.792Z,6.80
2023-02-23T06:44:27.842Z,6.70
2023-02-23T06:47:29.088Z,6.70
2023-02-23T06:50:29.945Z,6.60
2023-02-23T06:53:31.457Z,6.60
2023-02-23T06:56:32.483Z,6.70
2023-02-23T06:59:33.115Z,6.80
2023-02-23T07:02:35.740Z,6.70
2023-02-23T07:05:37.112Z,6.70
2023-02-23T07:08:38.930Z,6.70
2023-02-23T07:11:41.811Z,6.70
2023-02-23T07:14:43.120Z,6.70
2023-02-23T07:17:45.270Z,6.60
2023-02-23T07:20:46.866Z,6.80
2023-02-23T07:23:49.959Z,6.90
2023-02-23T07:26:52.289Z,7.10
2023-02-23T07:29:53.414Z,7.30
2023-02-23T07:32:54.609Z,7.40
2023-02-23T07:35:55.406Z,7.60
2023-02-23T07:38:56.158Z,7.70
2023-02-23T07:41:57.882Z,7.90
2023-02-23T07:44:58.877Z,8.00
2023-02-23T07:48:00.171Z,8.00
2023-02-23T07:51:01.518Z,8.00
2023-02-23T07:54:05.088Z,8.20
2023-02-23T07:57:06.208Z,8.30
2023-02-23T08:00:08.408Z,8.40
2023-02-23T08:03:15.034Z,8.50
2023-02-23T08:06:17.838Z,8.70
2023-02-23T08:09:18.770Z,8.70
2023-02-23T08:12:19.949Z,8.70
2023-02-23T08:15:21.320Z,9.00
2023-02-23T08:18:22.516Z,9.30
2023-02-23T08:21:24.469Z,9.30
2023-02-23T08:24:26.705Z,9.30
2023-02-23T08:27:27.791Z,9.20
2023-02-23T08:30:28.940Z,8.80
2023-02-23T08:33:31.804Z,8.60
2023-02-23T08:36:33.338Z,8.60
2023-02-23T08:39:34.635Z,8.80
2023-02-23T08:42:35.714Z,8.80
2023-02-23T08:45:39.733Z,8.80
2023-02-23T08:48:40.867Z,8.90
2023-02-23T08:51:43.159Z,9.00
2023-02-23T08:54:44.412Z,8.90
2023-02-23T08:57:45.039Z,9.20
2023-02-23T09:00:45.807Z,9.50
2023-02-23T09:03:46.719Z,9.80
2023-02-23T09:06:49.569Z,10.10
2023-02-23T09:09:57.321Z,10.20
2023-02-23T09:12:58.354Z,10.60
2023-02-23T09:15:59.219Z,10.80
2023-02-23T09:19:01.505Z,10.40
2023-02-23T09:22:02.367Z,10.20
2023-02-23T09:25:03.041Z,10.00
2023-02-23T09:28:03.882Z,10.00
2023-02-23T09:31:10.494Z,10.10
2023-02-23T09:34:12.848Z,10.00
2023-02-23T09:37:13.939Z,10.00
2023-02-23T09:40:29.645Z,10.00
2023-02-23T09:43:51.628Z,10.20
2023-02-23T09:47:30.867Z,10.40
2023-02-23T09:50:35.121Z,10.70
2023-02-23T09:53:55.264Z,11.40
2023-02-23T09:56:58.497Z,12.70
2023-02-23T09:59:59.172Z,14.20
2023-02-23T10:03:34.729Z,16.30
2023-02-23T10:06:35.800Z,18.40
2023-02-23T10:10:07.470Z,20.70
2023-02-23T10:13:48.573Z,22.70
2023-02-23T10:17:45.175Z,21.90
2023-02-23T10:20:57.886Z,20.20
2023-02-23T10:24:07.102Z,19.20
2023-02-23T10:27:18.567Z,18.20
2023-02-23T10:30:30.444Z,17.30
2023-02-23T10:33:42.194Z,17.20
2023-02-23T10:37:06.488Z,17.30
2023-02-23T10:40:15.627Z,16.30
2023-02-23T10:43:17.048Z,20.50
2023-02-23T10:46:30.551Z,22.60
2023-02-23T10:49:53.204Z,23.50
2023-02-23T10:53:04.757Z,24.80
2023-02-23T10:56:14.143Z,25.20
2023-02-23T10:59:21.737Z,25.00
2023-02-23T11:02:26.788Z,21.40
2023-02-23T11:05:50.754Z,19.90
2023-02-23T11:08:51.544Z,21.60
2023-02-23T11:12:07.510Z,20.10
2023-02-23T11:15:48.112Z,18.20
2023-02-23T11:19:01.865Z,18.70
2023-02-23T11:22:08.415Z,18.20
2023-02-23T11:25:32.764Z,17.60
2023-02-23T11:28:41.508Z,16.40
2023-02-23T11:31:52.569Z,15.60
2023-02-23T11:35:21.166Z,15.20
2023-02-23T11:38:22.385Z,15.70
2023-02-23T11:41:24.651Z,16.60
2023-02-23T11:44:25.883Z,16.20
2023-02-23T11:47:27.101Z,15.50
2023-02-23T11:50:35.847Z,14.80
2023-02-23T11:53:44.303Z,15.00
2023-02-23T11:56:55.311Z,16.10
2023-02-23T12:00:08.945Z,17.20
2023-02-23T12:03:23.334Z,15.60
2023-02-23T12:06:35.460Z,15.10
2023-02-23T12:09:37.000Z,14.70
2023-02-23T12:13:27.856Z,14.40
2023-02-23T12:16:39.487Z,17.60
2023-02-23T12:19:49.399Z,22.10
2023-02-23T12:23:20.326Z,22.70
2023-02-23T12:26:23.675Z,22.90
2023-02-23T12:29:55.609Z,23.80
2023-02-23T12:33:13.515Z,23.00
2023-02-23T12:36:42.918Z,23.50
2023-02-23T12:39:51.731Z,23.70
2023-02-23T12:43:16.102Z,24.70
2023-02-23T12:46:47.714Z,25.40
2023-02-23T12:50:18.685Z,25.20
2023-02-23T12:53:39.968Z,25.00
2023-02-23T12:56:59.049Z,24.20
2023-02-23T13:00:31.391Z,24.70
2023-02-23T13:04:01.870Z,24.70
2023-02-23T13:07:25.499Z,23.30
2023-02-23T13:10:56.461Z,23.10
2023-02-23T13:14:20.498Z,22.60
2023-02-23T13:17:48.802Z,20.90
2023-02-23T13:21:33.641Z,20.40
2023-02-23T13:24:46.354Z,19.90
2023-02-23T13:28:00.227Z,19.30
2023-02-23T13:31:02.983Z,20.00
2023-02-23T13:34:12.791Z,21.60
2023-02-23T13:37:20.676Z,21.70
2023-02-23T13:40:42.871Z,21.40
2023-02-23T13:44:07.890Z,21.40
2023-02-23T13:47:15.062Z,22.30
2023-02-23T13:50:29.567Z,23.70
2023-02-23T13:53:44.278Z,24.70
2023-02-23T13:56:53.393Z,24.20
2023-02-23T13:59:55.392Z,25.30
2023-02-23T14:02:56.990Z,26.00
2023-02-23T14:06:01.526Z,25.60
2023-02-23T14:09:12.018Z,25.70
2023-02-23T14:12:39.046Z,26.60
2023-02-23T14:15:42.452Z,26.80
2023-02-23T14:19:05.732Z,26.90
2023-02-23T14:22:18.667Z,25.80
2023-02-23T14:25:34.798Z,26.40
2023-02-23T14:28:39.505Z,25.00
2023-02-23T14:32:02.404Z,25.50
2023-02-23T14:35:03.784Z,25.80
2023-02-23T14:38:08.578Z,25.80
2023-02-23T14:41:12.207Z,25.70
2023-02-23T14:44:28.917Z,24.60
2023-02-23T14:47:45.847Z,26.50
2023-02-23T14:50:47.127Z,25.50
2023-02-23T14:53:48.213Z,25.40
2023-02-23T14:56:54.264Z,26.10
2023-02-23T15:00:00.977Z,26.40
2023-02-23T15:03:12.737Z,26.30
2023-02-23T15:06:14.145Z,25.80
2023-02-23T15:09:32.399Z,25.90
2023-02-23T15:12:38.531Z,24.60
2023-02-23T15:15:47.578Z,23.10
2023-02-23T15:18:49.210Z,20.60
2023-02-23T15:21:53.887Z,21.60
2023-02-23T15:25:00.899Z,22.70
2023-02-23T15:28:19.995Z,23.00
2023-02-23T15:31:21.771Z,22.10
2023-02-23T15:34:26.917Z,22.10
2023-02-23T15:38:11.091Z,20.10
2023-02-23T15:41:30.564Z,20.20
2023-02-23T15:44:43.589Z,19.30
2023-02-23T15:47:45.285Z,19.80
2023-02-23T15:50:53.392Z,19.40
2023-02-23T15:53:55.529Z,17.70
2023-02-23T15:57:03.855Z,17.00
2023-02-23T16:00:36.880Z,16.20
2023-02-23T16:03:55.023Z,16.00
2023-02-23T16:07:11.893Z,15.70
2023-02-23T16:10:25.294Z,15.50
2023-02-23T16:13:27.555Z,15.40
2023-02-23T16:16:28.914Z,15.20
2023-02-23T16:19:31.695Z,14.70
2023-02-23T16:22:33.038Z,14.80
2023-02-23T16:25:35.174Z,14.80
2023-02-23T16:28:42.991Z,14.80
2023-02-23T16:31:54.933Z,13.90
2023-02-23T16:35:02.563Z,13.30
2023-02-23T16:38:13.133Z,12.70
2023-02-23T16:41:22.236Z,12.30
2023-02-23T16:44:28.482Z,12.10
2023-02-23T16:47:43.758Z,11.70
2023-02-23T16:50:45.912Z,11.50
2023-02-23T16:53:47.074Z,11.30
2023-02-23T16:56:49.131Z,11.10
2023-02-23T16:59:52.954Z,10.90
2023-02-23T17:02:55.883Z,10.70
2023-02-23T17:05:57.149Z,10.60
2023-02-23T17:08:58.450Z,10.50
2023-02-23T17:12:00.061Z,10.30
2023-02-23T17:15:04.438Z,10.00
2023-02-23T17:18:06.366Z,9.70
2023-02-23T17:21:12.026Z,9.50
2023-02-23T17:24:13.248Z,9.30
2023-02-23T17:27:14.599Z,9.20
2023-02-23T17:30:15.805Z,9.20
2023-02-23T17:33:17.444Z,9.10
2023-02-23T17:36:18.663Z,9.00
2023-02-23T17:39:19.717Z,8.90
2023-02-23T17:42:20.804Z,8.80
2023-02-23T17:45:22.836Z,8.80
2023-02-23T17:48:26.458Z,8.70
2023-02-23T17:51:27.893Z,8.70
2023-02-23T17:54:30.381Z,8.70
2023-02-23T17:57:31.441Z,8.60
2023-02-23T18:00:37.889Z,8.40
2023-02-23T18:03:39.016Z,8.30
2023-02-23T18:06:40.195Z,8.20
2023-02-23T18:09:41.674Z,8.20
2023-02-23T18:12:42.898Z,8.30
2023-02-23T18:15:53.209Z,8.20
2023-02-23T18:18:57.686Z,8.00
2023-02-23T18:21:58.755Z,8.00
2023-02-23T18:24:59.798Z,7.90
2023-02-23T18:28:00.826Z,8.10
2023-02-23T18:31:02.448Z,8.00
2023-02-23T18:34:03.193Z,7.80
2023-02-23T18:37:05.839Z,7.70
2023-02-23T18:40:07.460Z,7.60
2023-02-23T18:43:09.363Z,7.60
2023-02-23T18:46:13.287Z,7.60
2023-02-23T18:49:20.927Z,7.60
2023-02-23T18:52:21.918Z,7.60
2023-02-23T18:55:23.627Z,7.70
2023-02-23T18:58:24.700Z,7.50
2023-02-23T19:01:29.494Z,7.30
2023-02-23T19:04:30.686Z,7.30
2023-02-23T19:07:32.567Z,7.40
2023-02-23T19:10:34.197Z,7.20
2023-02-23T19:13:38.099Z,6.70
2023-02-23T19:16:41.198Z,6.60
2023-02-23T19:19:42.362Z,6.60
2023-02-23T19:22:43.405Z,6.70
2023-02-23T19:25:49.262Z,6.90
2023-02-23T19:28:50.133Z,6.90
2023-02-23T19:31:51.402Z,6.80
2023-02-23T19:34:52.613Z,6.70
2023-02-23T19:37:54.515Z,6.70
2023-02-23T19:40:55.955Z,6.80
2023-02-23T19:43:58.541Z,6.90
2023-02-23T19:46:59.714Z,6.80
2023-02-23T19:50:00.535Z,6.80
2023-02-23T19:53:01.734Z,6.70
2023-02-23T19:56:07.693Z,6.70
2023-02-23T19:59:08.445Z,6.70
2023-02-23T20:02:11.598Z,6.40
2023-02-23T20:05:16.315Z,6.30
2023-02-23T20:08:19.467Z,6.40
2023-02-23T20:11:20.570Z,6.50
2023-02-23T20:14:21.657Z,6.80
2023-02-23T20:17:22.281Z,6.60
2023-02-23T20:20:25.762Z,6.60
2023-02-23T20:23:26.600Z,6.60
2023-02-23T20:26:35.669Z,6.70
2023-02-23T20:29:37.052Z,6.50
2023-02-23T20:32:38.490Z,6.60
2023-02-23T20:35:39.858Z,6.50
2023-02-23T20:38:40.638Z,6.40
2023-02-23T20:41:44.213Z,6.10
2023-02-23T20:44:45.270Z,6.20
2023-02-23T20:47:47.363Z,6.10
2023-02-23T20:50:54.942Z,5.90
2023-02-23T20:53:55.876Z,5.80
2023-02-23T20:57:07.502Z,5.70
2023-02-23T21:00:10.443Z,5.60
2023-02-23T21:03:11.626Z,5.60
2023-02-23T21:06:12.963Z,5.70
2023-02-23T21:09:23.058Z,5.70
2023-02-23T21:12:24.033Z,5.60
2023-02-23T21:15:25.655Z,5.70
2023-02-23T21:18:31.524Z,5.70
2023-02-23T21:21:48.851Z,5.80
2023-02-23T21:24:49.811Z,5.80
2023-02-23T21:27:51.953Z,5.80
2023-02-23T21:30:53.419Z,5.60
2023-02-23T21:33:54.780Z,5.60
2023-02-23T21:36:59.353Z,5.50
2023-02-23T21:40:00.693Z,5.40
2023-02-23T21:43:01.413Z,5.50
2023-02-23T21:46:14.973Z,5.50
2023-02-23T21:49:16.699Z,5.40
2023-02-23T21:52:18.343Z,5.40
2023-02-23T21:55:22.781Z,5.40
2023-02-23T21:58:25.169Z,5.30
2023-02-23T22:01:34.849Z,5.50
2023-02-23T22:04:37.167Z,5.40
2023-02-23T22:07:38.376Z,5.30
2023-02-23T22:10:39.514Z,5.30
2023-02-23T22:13:40.275Z,5.30
2023-02-23T22:16:42.227Z,5.20
2023-02-23T22:19:43.015Z,5.20
2023-02-23T22:22:43.825Z,5.20
2023-02-23T22:25:47.016Z,5.40
2023-02-23T22:28:48.121Z,5.50
2023-02-23T22:31:49.655Z,5.50
2023-02-23T22:34:50.656Z,5.40
2023-02-23T22:37:51.502Z,5.40
2023-02-23T22:40:52.210Z,5.30
2023-02-23T22:43:53.220Z,5.30
2023-02-23T22:46:53.765Z,5.20
2023-02-23T22:49:54.854Z,5.30
2023-02-23T22:52:55.854Z,5.10
2023-02-23T22:55:57.752Z,5.10
2023-02-23T22:59:06.216Z,5.10
2023-02-23T23:02:06.922Z,5.10
2023-02-23T23:05:09.161Z,5.10
2023-02-23T23:08:10.284Z,5.10
2023-02-23T23:11:15.748Z,5.10
2023-02-23T23:14:19.492Z,5.00
2023-02-23T23:17:20.531Z,5.00
2023-02-23T23:20:25.963Z,5.00
2023-02-23T23:23:27.146Z,5.10
2023-02-23T23:26:29.826Z,5.10
2023-02-23T23:29:30.879Z,5.10
2023-02-23T23:32:33.703Z,5.00
2023-02-23T23:35:34.848Z,4.70
2023-02-23T23:38:35.941Z,4.50
2023-02-23T23:41:37.357Z,4.40
2023-02-23T23:44:38.382Z,4.40
2023-02-23T23:47:39.690Z,4.30
2023-02-23T23:50:40.769Z,4.50
2023-02-23T23:53:42.558Z,4.60
2023-02-23T23:56:44.349Z,4.50
2023-02-23T23:59:46.389Z,4.40
